sensor_id;sensor_type;location;lat;lon;timestamp;temperature;humidity
19330;DHT22;9799;48.214;16.388;2023-06-10T00:02:37;19.00;99.90
19330;DHT22;9799;48.214;16.388;2023-06-10T00:05:59;18.80;99.90
19330;DHT22;9799;48.214;16.388;2023-06-10T00:09:20;18.70;99.90
19330;DHT22;9799;48.214;16.388;2023-06-10T00:12:44;18.80;99.90
19330;DHT22;9799;48.214;16.388;2023-06-10T00:16:05;18.80;99.90
19330;DHT22;9799;48.214;16.388;2023-06-10T00:19:26;18.90;99.90
19330;DHT22;9799;48.214;16.388;2023-06-10T00:22:49;18.80;99.90
19330;DHT22;9799;48.214;16.388;2023-06-10T00:26:11;18.80;99.90
19330;DHT22;9799;48.214;16.388;2023-06-10T00:29:33;18.70;99.90
19330;DHT22;9799;48.214;16.388;2023-06-10T00:32:55;18.70;99.90
19330;DHT22;9799;48.214;16.388;2023-06-10T00:36:16;18.70;99.90
19330;DHT22;9799;48.214;16.388;2023-06-10T00:39:37;18.70;99.90
19330;DHT22;9799;48.214;16.388;2023-06-10T00:42:58;18.80;99.90
19330;DHT22;9799;48.214;16.388;2023-06-10T00:46:21;18.80;99.90
19330;DHT22;9799;48.214;16.388;2023-06-10T00:49:44;18.70;99.90
19330;DHT22;9799;48.214;16.388;2023-06-10T00:53:05;18.70;99.90
19330;DHT22;9799;48.214;16.388;2023-06-10T00:56:27;18.70;99.90
19330;DHT22;9799;48.214;16.388;2023-06-10T00:59:49;18.70;99.90
19330;DHT22;9799;48.214;16.388;2023-06-10T01:03:12;18.70;99.90
19330;DHT22;9799;48.214;16.388;2023-06-10T01:06:44;18.60;99.90
19330;DHT22;9799;48.214;16.388;2023-06-10T01:10:12;18.50;99.90
19330;DHT22;9799;48.214;16.388;2023-06-10T01:13:38;18.50;99.90
19330;DHT22;9799;48.214;16.388;2023-06-10T01:17:01;18.60;99.90
19330;DHT22;9799;48.214;16.388;2023-06-10T01:20:24;18.60;99.90
19330;DHT22;9799;48.214;16.388;2023-06-10T01:23:47;18.60;99.90
19330;DHT22;9799;48.214;16.388;2023-06-10T01:27:13;18.70;99.90
19330;DHT22;9799;48.214;16.388;2023-06-10T01:30:41;18.70;99.90
19330;DHT22;9799;48.214;16.388;2023-06-10T01:34:10;18.70;99.90
19330;DHT22;9799;48.214;16.388;2023-06-10T01:37:31;18.80;99.90
19330;DHT22;9799;48.214;16.388;2023-06-10T01:40:55;18.60;99.90
19330;DHT22;9799;48.214;16.388;2023-06-10T01:44:18;18.70;99.90
19330;DHT22;9799;48.214;16.388;2023-06-10T01:47:39;18.70;99.90
19330;DHT22;9799;48.214;16.388;2023-06-10T01:51:00;18.80;99.90
19330;DHT22;9799;48.214;16.388;2023-06-10T01:54:22;18.70;99.90
19330;DHT22;9799;48.214;16.388;2023-06-10T01:57:44;18.70;99.90
19330;DHT22;9799;48.214;16.388;2023-06-10T02:01:05;18.70;99.90
19330;DHT22;9799;48.214;16.388;2023-06-10T02:04:26;18.70;99.90
19330;DHT22;9799;48.214;16.388;2023-06-10T02:07:48;18.60;99.90
19330;DHT22;9799;48.214;16.388;2023-06-10T02:11:09;18.60;99.90
19330;DHT22;9799;48.214;16.388;2023-06-10T02:14:32;18.70;99.90
19330;DHT22;9799;48.214;16.388;2023-06-10T02:17:53;18.70;99.90
19330;DHT22;9799;48.214;16.388;2023-06-10T02:21:15;18.70;99.90
19330;DHT22;9799;48.214;16.388;2023-06-10T02:24:36;18.70;99.90
19330;DHT22;9799;48.214;16.388;2023-06-10T02:27:58;18.80;99.90
19330;DHT22;9799;48.214;16.388;2023-06-10T02:31:21;18.70;99.90
19330;DHT22;9799;48.214;16.388;2023-06-10T02:34:44;18.70;99.90
19330;DHT22;9799;48.214;16.388;2023-06-10T02:38:05;18.70;99.90
19330;DHT22;9799;48.214;16.388;2023-06-10T02:41:26;18.70;99.90
19330;DHT22;9799;48.214;16.388;2023-06-10T02:44:48;18.70;99.90
19330;DHT22;9799;48.214;16.388;2023-06-10T02:48:11;18.70;99.90
19330;DHT22;9799;48.214;16.388;2023-06-10T02:51:32;18.70;99.90
19330;DHT22;9799;48.214;16.388;2023-06-10T02:54:53;18.70;99.90
19330;DHT22;9799;48.214;16.388;2023-06-10T02:58:14;18.60;99.90
19330;DHT22;9799;48.214;16.388;2023-06-10T03:01:36;18.60;99.90
19330;DHT22;9799;48.214;16.388;2023-06-10T03:04:58;18.60;99.90
19330;DHT22;9799;48.214;16.388;2023-06-10T03:08:19;18.60;99.90
19330;DHT22;9799;48.214;16.388;2023-06-10T03:11:40;18.60;99.90
19330;DHT22;9799;48.214;16.388;2023-06-10T03:15:02;18.60;99.90
19330;DHT22;9799;48.214;16.388;2023-06-10T03:18:26;18.50;99.90
19330;DHT22;9799;48.214;16.388;2023-06-10T03:21:57;18.50;99.90
19330;DHT22;9799;48.214;16.388;2023-06-10T03:25:18;18.60;99.90
19330;DHT22;9799;48.214;16.388;2023-06-10T03:28:40;18.50;99.90
19330;DHT22;9799;48.214;16.388;2023-06-10T03:32:02;18.60;99.90
19330;DHT22;9799;48.214;16.388;2023-06-10T03:35:23;18.60;99.90
19330;DHT22;9799;48.214;16.388;2023-06-10T03:38:45;18.60;99.90
19330;DHT22;9799;48.214;16.388;2023-06-10T03:42:07;18.70;99.90
19330;DHT22;9799;48.214;16.388;2023-06-10T03:45:28;18.70;99.90
19330;DHT22;9799;48.214;16.388;2023-06-10T03:48:49;18.60;99.90
19330;DHT22;9799;48.214;16.388;2023-06-10T03:52:10;18.70;99.90
19330;DHT22;9799;48.214;16.388;2023-06-10T03:55:33;18.70;99.90
19330;DHT22;9799;48.214;16.388;2023-06-10T03:58:54;18.70;99.90
19330;DHT22;9799;48.214;16.388;2023-06-10T04:02:16;18.70;99.90
19330;DHT22;9799;48.214;16.388;2023-06-10T04:05:38;18.60;99.90
19330;DHT22;9799;48.214;16.388;2023-06-10T04:08:59;18.60;99.90
19330;DHT22;9799;48.214;16.388;2023-06-10T04:12:21;18.70;99.90
19330;DHT22;9799;48.214;16.388;2023-06-10T04:15:45;18.80;99.90
19330;DHT22;9799;48.214;16.388;2023-06-10T04:19:07;18.80;99.90
19330;DHT22;9799;48.214;16.388;2023-06-10T04:22:28;18.90;99.90
19330;DHT22;9799;48.214;16.388;2023-06-10T04:25:49;18.90;99.90
19330;DHT22;9799;48.214;16.388;2023-06-10T04:29:12;18.90;99.90
19330;DHT22;9799;48.214;16.388;2023-06-10T04:32:33;18.90;99.90
19330;DHT22;9799;48.214;16.388;2023-06-10T04:35:54;18.80;99.90
19330;DHT22;9799;48.214;16.388;2023-06-10T04:39:15;18.90;99.90
19330;DHT22;9799;48.214;16.388;2023-06-10T04:42:37;18.90;99.90
19330;DHT22;9799;48.214;16.388;2023-06-10T04:46:00;19.00;99.90
19330;DHT22;9799;48.214;16.388;2023-06-10T04:49:21;19.00;99.90
19330;DHT22;9799;48.214;16.388;2023-06-10T04:52:42;19.10;99.90
19330;DHT22;9799;48.214;16.388;2023-06-10T04:56:04;19.10;99.90
19330;DHT22;9799;48.214;16.388;2023-06-10T04:59:27;19.00;99.90
19330;DHT22;9799;48.214;16.388;2023-06-10T05:02:51;19.00;99.90
19330;DHT22;9799;48.214;16.388;2023-06-10T05:06:12;19.10;99.90
19330;DHT22;9799;48.214;16.388;2023-06-10T05:09:33;19.30;99.90
19330;DHT22;9799;48.214;16.388;2023-06-10T05:12:54;19.30;99.90
19330;DHT22;9799;48.214;16.388;2023-06-10T05:16:15;19.20;99.90
19330;DHT22;9799;48.214;16.388;2023-06-10T05:19:38;19.20;99.90
19330;DHT22;9799;48.214;16.388;2023-06-10T05:22:59;19.30;99.90
19330;DHT22;9799;48.214;16.388;2023-06-10T05:26:20;19.20;99.90
19330;DHT22;9799;48.214;16.388;2023-06-10T05:29:41;19.30;99.90
19330;DHT22;9799;48.214;16.388;2023-06-10T05:33:02;19.30;99.90
19330;DHT22;9799;48.214;16.388;2023-06-10T05:36:25;19.30;99.90
19330;DHT22;9799;48.214;16.388;2023-06-10T05:39:47;19.30;99.90
19330;DHT22;9799;48.214;16.388;2023-06-10T05:43:08;19.20;99.90
19330;DHT22;9799;48.214;16.388;2023-06-10T05:46:31;19.30;99.90
19330;DHT22;9799;48.214;16.388;2023-06-10T05:49:52;19.30;99.90
19330;DHT22;9799;48.214;16.388;2023-06-10T05:53:14;19.30;99.90
19330;DHT22;9799;48.214;16.388;2023-06-10T05:56:36;19.30;99.90
19330;DHT22;9799;48.214;16.388;2023-06-10T05:59:57;19.20;99.90
19330;DHT22;9799;48.214;16.388;2023-06-10T06:03:18;19.20;99.90
19330;DHT22;9799;48.214;16.388;2023-06-10T06:06:39;19.20;99.90
19330;DHT22;9799;48.214;16.388;2023-06-10T06:10:03;19.20;99.90
19330;DHT22;9799;48.214;16.388;2023-06-10T06:13:24;19.10;99.90
19330;DHT22;9799;48.214;16.388;2023-06-10T06:16:45;19.20;99.90
19330;DHT22;9799;48.214;16.388;2023-06-10T06:20:07;19.20;99.90
19330;DHT22;9799;48.214;16.388;2023-06-10T06:23:29;19.20;99.90
19330;DHT22;9799;48.214;16.388;2023-06-10T06:26:51;19.10;99.90
19330;DHT22;9799;48.214;16.388;2023-06-10T06:30:13;19.10;99.90
19330;DHT22;9799;48.214;16.388;2023-06-10T06:33:34;19.00;99.90
19330;DHT22;9799;48.214;16.388;2023-06-10T06:36:55;19.00;99.90
19330;DHT22;9799;48.214;16.388;2023-06-10T06:40:16;19.10;99.90
19330;DHT22;9799;48.214;16.388;2023-06-10T06:43:39;19.10;99.90
19330;DHT22;9799;48.214;16.388;2023-06-10T06:47:00;19.10;99.90
19330;DHT22;9799;48.214;16.388;2023-06-10T06:50:21;19.20;99.90
19330;DHT22;9799;48.214;16.388;2023-06-10T06:53:42;19.20;99.90
19330;DHT22;9799;48.214;16.388;2023-06-10T06:57:06;19.20;99.90
19330;DHT22;9799;48.214;16.388;2023-06-10T07:00:29;19.20;99.90
19330;DHT22;9799;48.214;16.388;2023-06-10T07:03:50;19.30;99.90
19330;DHT22;9799;48.214;16.388;2023-06-10T07:07:11;19.30;99.90
19330;DHT22;9799;48.214;16.388;2023-06-10T07:10:32;19.40;99.90
19330;DHT22;9799;48.214;16.388;2023-06-10T07:13:54;19.20;99.90
19330;DHT22;9799;48.214;16.388;2023-06-10T07:17:16;19.30;99.90
19330;DHT22;9799;48.214;16.388;2023-06-10T07:20:38;19.30;99.90
19330;DHT22;9799;48.214;16.388;2023-06-10T07:23:59;19.40;99.90
19330;DHT22;9799;48.214;16.388;2023-06-10T07:27:20;19.40;99.90
19330;DHT22;9799;48.214;16.388;2023-06-10T07:30:42;19.50;99.90
19330;DHT22;9799;48.214;16.388;2023-06-10T07:34:05;19.40;99.90
19330;DHT22;9799;48.214;16.388;2023-06-10T07:37:26;19.50;99.90
19330;DHT22;9799;48.214;16.388;2023-06-10T07:40:47;19.50;99.90
19330;DHT22;9799;48.214;16.388;2023-06-10T07:44:08;19.60;99.90
19330;DHT22;9799;48.214;16.388;2023-06-10T07:47:29;19.50;99.90
19330;DHT22;9799;48.214;16.388;2023-06-10T07:50:52;19.50;99.90
19330;DHT22;9799;48.214;16.388;2023-06-10T07:54:13;19.60;99.90
19330;DHT22;9799;48.214;16.388;2023-06-10T07:57:34;19.50;99.90
19330;DHT22;9799;48.214;16.388;2023-06-10T08:00:56;19.40;99.90
19330;DHT22;9799;48.214;16.388;2023-06-10T08:04:17;19.40;99.90
19330;DHT22;9799;48.214;16.388;2023-06-10T08:07:40;19.50;99.90
19330;DHT22;9799;48.214;16.388;2023-06-10T08:11:02;19.50;99.90
19330;DHT22;9799;48.214;16.388;2023-06-10T08:14:23;19.50;99.90
19330;DHT22;9799;48.214;16.388;2023-06-10T08:17:44;19.50;99.90
19330;DHT22;9799;48.214;16.388;2023-06-10T08:21:05;19.40;99.90
19330;DHT22;9799;48.214;16.388;2023-06-10T08:24:28;19.50;99.90
19330;DHT22;9799;48.214;16.388;2023-06-10T08:27:49;19.50;99.90
19330;DHT22;9799;48.214;16.388;2023-06-10T08:31:10;19.40;99.90
19330;DHT22;9799;48.214;16.388;2023-06-10T08:34:32;19.40;99.90
19330;DHT22;9799;48.214;16.388;2023-06-10T08:37:54;19.50;99.90
19330;DHT22;9799;48.214;16.388;2023-06-10T08:41:17;19.60;99.90
19330;DHT22;9799;48.214;16.388;2023-06-10T08:44:40;19.60;99.90
19330;DHT22;9799;48.214;16.388;2023-06-10T08:48:03;19.70;99.90
19330;DHT22;9799;48.214;16.388;2023-06-10T08:51:26;19.80;99.90
19330;DHT22;9799;48.214;16.388;2023-06-10T08:54:56;19.80;99.90
19330;DHT22;9799;48.214;16.388;2023-06-10T08:58:20;19.70;99.90
19330;DHT22;9799;48.214;16.388;2023-06-10T09:01:41;19.60;99.90
19330;DHT22;9799;48.214;16.388;2023-06-10T09:05:03;19.70;99.90
19330;DHT22;9799;48.214;16.388;2023-06-10T09:08:24;19.70;99.90
19330;DHT22;9799;48.214;16.388;2023-06-10T09:11:46;19.70;99.90
19330;DHT22;9799;48.214;16.388;2023-06-10T09:15:09;19.90;99.90
19330;DHT22;9799;48.214;16.388;2023-06-10T09:18:32;20.10;99.90
19330;DHT22;9799;48.214;16.388;2023-06-10T09:21:54;20.10;99.90
19330;DHT22;9799;48.214;16.388;2023-06-10T09:25:15;20.10;99.90
19330;DHT22;9799;48.214;16.388;2023-06-10T09:28:36;20.30;99.90
19330;DHT22;9799;48.214;16.388;2023-06-10T09:32:01;20.40;99.90
19330;DHT22;9799;48.214;16.388;2023-06-10T09:35:22;20.70;99.90
19330;DHT22;9799;48.214;16.388;2023-06-10T09:38:44;20.80;99.90
19330;DHT22;9799;48.214;16.388;2023-06-10T09:42:16;20.80;99.90
19330;DHT22;9799;48.214;16.388;2023-06-10T09:45:38;20.80;99.90
19330;DHT22;9799;48.214;16.388;2023-06-10T09:49:00;20.80;99.90
19330;DHT22;9799;48.214;16.388;2023-06-10T09:52:22;21.00;99.90
19330;DHT22;9799;48.214;16.388;2023-06-10T09:55:44;21.20;99.90
19330;DHT22;9799;48.214;16.388;2023-06-10T09:59:06;21.20;99.90
19330;DHT22;9799;48.214;16.388;2023-06-10T10:02:27;21.20;99.90
19330;DHT22;9799;48.214;16.388;2023-06-10T10:05:49;21.30;99.90
19330;DHT22;9799;48.214;16.388;2023-06-10T10:09:18;21.40;99.90
19330;DHT22;9799;48.214;16.388;2023-06-10T10:12:39;21.30;99.90
19330;DHT22;9799;48.214;16.388;2023-06-10T10:16:05;21.30;99.90
19330;DHT22;9799;48.214;16.388;2023-06-10T10:19:31;21.30;99.90
19330;DHT22;9799;48.214;16.388;2023-06-10T10:22:56;21.30;99.90
19330;DHT22;9799;48.214;16.388;2023-06-10T10:26:18;21.50;99.90
19330;DHT22;9799;48.214;16.388;2023-06-10T10:29:45;21.60;99.90
19330;DHT22;9799;48.214;16.388;2023-06-10T10:33:12;21.60;99.90
19330;DHT22;9799;48.214;16.388;2023-06-10T10:36:34;21.90;99.90
19330;DHT22;9799;48.214;16.388;2023-06-10T10:39:58;22.30;99.90
19330;DHT22;9799;48.214;16.388;2023-06-10T10:43:21;22.40;99.90
19330;DHT22;9799;48.214;16.388;2023-06-10T10:46:43;22.40;99.90
19330;DHT22;9799;48.214;16.388;2023-06-10T10:50:14;22.30;99.90
19330;DHT22;9799;48.214;16.388;2023-06-10T10:53:37;22.30;99.90
19330;DHT22;9799;48.214;16.388;2023-06-10T10:57:16;22.40;99.90
19330;DHT22;9799;48.214;16.388;2023-06-10T11:00:43;22.40;99.90
19330;DHT22;9799;48.214;16.388;2023-06-10T11:04:07;22.30;99.90
19330;DHT22;9799;48.214;16.388;2023-06-10T11:07:31;22.30;99.90
19330;DHT22;9799;48.214;16.388;2023-06-10T11:10:52;22.30;99.90
19330;DHT22;9799;48.214;16.388;2023-06-10T11:14:26;22.30;99.90
19330;DHT22;9799;48.214;16.388;2023-06-10T11:18:23;22.60;99.90
19330;DHT22;9799;48.214;16.388;2023-06-10T11:22:00;22.80;99.90
19330;DHT22;9799;48.214;16.388;2023-06-10T11:25:38;23.00;99.90
19330;DHT22;9799;48.214;16.388;2023-06-10T11:29:07;22.70;99.90
19330;DHT22;9799;48.214;16.388;2023-06-10T11:32:31;23.10;99.90
19330;DHT22;9799;48.214;16.388;2023-06-10T11:35:53;23.30;99.90
19330;DHT22;9799;48.214;16.388;2023-06-10T11:39:15;23.40;99.90
19330;DHT22;9799;48.214;16.388;2023-06-10T11:42:39;23.20;99.90
19330;DHT22;9799;48.214;16.388;2023-06-10T11:46:00;23.30;99.90
19330;DHT22;9799;48.214;16.388;2023-06-10T11:49:23;23.80;99.90
19330;DHT22;9799;48.214;16.388;2023-06-10T11:52:45;23.30;99.90
19330;DHT22;9799;48.214;16.388;2023-06-10T11:56:06;23.00;99.90
19330;DHT22;9799;48.214;16.388;2023-06-10T11:59:27;23.20;99.90
19330;DHT22;9799;48.214;16.388;2023-06-10T12:02:55;23.20;99.90
19330;DHT22;9799;48.214;16.388;2023-06-10T12:06:18;23.30;99.90
19330;DHT22;9799;48.214;16.388;2023-06-10T12:09:39;23.80;99.90
19330;DHT22;9799;48.214;16.388;2023-06-10T12:13:00;23.90;99.90
19330;DHT22;9799;48.214;16.388;2023-06-10T12:16:22;23.90;99.90
19330;DHT22;9799;48.214;16.388;2023-06-10T12:19:43;23.70;99.90
19330;DHT22;9799;48.214;16.388;2023-06-10T12:23:10;23.90;99.90
19330;DHT22;9799;48.214;16.388;2023-06-10T12:26:35;23.70;99.90
19330;DHT22;9799;48.214;16.388;2023-06-10T12:29:59;23.60;99.90
19330;DHT22;9799;48.214;16.388;2023-06-10T12:33:23;23.30;99.90
19330;DHT22;9799;48.214;16.388;2023-06-10T12:36:48;23.20;99.90
19330;DHT22;9799;48.214;16.388;2023-06-10T12:40:11;23.10;99.90
19330;DHT22;9799;48.214;16.388;2023-06-10T12:43:35;23.10;99.90
19330;DHT22;9799;48.214;16.388;2023-06-10T12:46:57;22.70;99.90
19330;DHT22;9799;48.214;16.388;2023-06-10T12:50:18;22.20;99.90
19330;DHT22;9799;48.214;16.388;2023-06-10T12:53:39;21.90;99.90
19330;DHT22;9799;48.214;16.388;2023-06-10T12:57:02;21.70;99.90
19330;DHT22;9799;48.214;16.388;2023-06-10T13:00:23;21.60;99.90
19330;DHT22;9799;48.214;16.388;2023-06-10T13:03:45;21.70;99.90
19330;DHT22;9799;48.214;16.388;2023-06-10T13:07:07;21.70;99.90
19330;DHT22;9799;48.214;16.388;2023-06-10T13:10:30;21.90;99.90
19330;DHT22;9799;48.214;16.388;2023-06-10T13:13:52;22.00;99.90
19330;DHT22;9799;48.214;16.388;2023-06-10T13:17:14;22.10;99.90
19330;DHT22;9799;48.214;16.388;2023-06-10T13:20:35;22.20;99.90
19330;DHT22;9799;48.214;16.388;2023-06-10T13:23:56;22.50;99.90
19330;DHT22;9799;48.214;16.388;2023-06-10T13:27:17;22.40;99.90
19330;DHT22;9799;48.214;16.388;2023-06-10T13:30:39;22.30;99.90
19330;DHT22;9799;48.214;16.388;2023-06-10T13:34:00;22.20;99.90
19330;DHT22;9799;48.214;16.388;2023-06-10T13:37:22;22.10;99.90
19330;DHT22;9799;48.214;16.388;2023-06-10T13:40:43;22.20;99.90
19330;DHT22;9799;48.214;16.388;2023-06-10T13:44:04;22.30;99.90
19330;DHT22;9799;48.214;16.388;2023-06-10T13:47:27;22.20;99.90
19330;DHT22;9799;48.214;16.388;2023-06-10T13:50:49;22.30;99.90
19330;DHT22;9799;48.214;16.388;2023-06-10T13:54:10;22.30;99.90
19330;DHT22;9799;48.214;16.388;2023-06-10T13:57:34;22.30;99.90
19330;DHT22;9799;48.214;16.388;2023-06-10T14:00:55;22.20;99.90
19330;DHT22;9799;48.214;16.388;2023-06-10T14:04:18;22.00;99.90
19330;DHT22;9799;48.214;16.388;2023-06-10T14:07:39;22.00;99.90
19330;DHT22;9799;48.214;16.388;2023-06-10T14:11:01;22.00;99.90
19330;DHT22;9799;48.214;16.388;2023-06-10T14:14:22;22.00;99.90
19330;DHT22;9799;48.214;16.388;2023-06-10T14:17:43;22.20;99.90
19330;DHT22;9799;48.214;16.388;2023-06-10T14:21:05;22.20;99.90
19330;DHT22;9799;48.214;16.388;2023-06-10T14:24:27;22.30;99.90
19330;DHT22;9799;48.214;16.388;2023-06-10T14:27:48;22.40;99.90
19330;DHT22;9799;48.214;16.388;2023-06-10T14:31:09;22.40;99.90
19330;DHT22;9799;48.214;16.388;2023-06-10T14:34:30;22.40;99.90
19330;DHT22;9799;48.214;16.388;2023-06-10T14:37:54;22.40;99.90
19330;DHT22;9799;48.214;16.388;2023-06-10T14:41:15;22.50;99.90
19330;DHT22;9799;48.214;16.388;2023-06-10T14:44:37;22.50;99.90
19330;DHT22;9799;48.214;16.388;2023-06-10T14:47:58;22.60;99.90
19330;DHT22;9799;48.214;16.388;2023-06-10T14:51:19;22.70;99.90
19330;DHT22;9799;48.214;16.388;2023-06-10T14:54:42;22.80;99.90
19330;DHT22;9799;48.214;16.388;2023-06-10T14:58:03;22.80;99.90
19330;DHT22;9799;48.214;16.388;2023-06-10T15:01:24;22.90;99.90
19330;DHT22;9799;48.214;16.388;2023-06-10T15:04:46;22.80;99.90
19330;DHT22;9799;48.214;16.388;2023-06-10T15:08:07;22.90;99.90
19330;DHT22;9799;48.214;16.388;2023-06-10T15:11:29;23.00;99.90
19330;DHT22;9799;48.214;16.388;2023-06-10T15:14:51;23.10;99.90
19330;DHT22;9799;48.214;16.388;2023-06-10T15:18:12;23.00;99.90
19330;DHT22;9799;48.214;16.388;2023-06-10T15:21:33;23.10;99.90
19330;DHT22;9799;48.214;16.388;2023-06-10T15:24:54;23.20;99.90
19330;DHT22;9799;48.214;16.388;2023-06-10T15:28:18;23.00;99.90
19330;DHT22;9799;48.214;16.388;2023-06-10T15:31:40;22.50;99.90
19330;DHT22;9799;48.214;16.388;2023-06-10T15:35:01;20.00;99.90
19330;DHT22;9799;48.214;16.388;2023-06-10T15:38:22;18.10;99.90
19330;DHT22;9799;48.214;16.388;2023-06-10T15:41:43;17.30;99.90
19330;DHT22;9799;48.214;16.388;2023-06-10T15:45:06;17.60;99.90
19330;DHT22;9799;48.214;16.388;2023-06-10T15:48:28;18.00;99.90
19330;DHT22;9799;48.214;16.388;2023-06-10T15:51:49;18.30;99.90
19330;DHT22;9799;48.214;16.388;2023-06-10T15:55:10;18.70;99.90
19330;DHT22;9799;48.214;16.388;2023-06-10T15:58:31;19.00;99.90
19330;DHT22;9799;48.214;16.388;2023-06-10T16:01:54;19.20;99.90
19330;DHT22;9799;48.214;16.388;2023-06-10T16:05:15;19.30;99.90
19330;DHT22;9799;48.214;16.388;2023-06-10T16:08:36;19.40;99.90
19330;DHT22;9799;48.214;16.388;2023-06-10T16:11:57;19.40;99.90
19330;DHT22;9799;48.214;16.388;2023-06-10T16:15:18;19.40;99.90
19330;DHT22;9799;48.214;16.388;2023-06-10T16:18:41;19.50;99.90
19330;DHT22;9799;48.214;16.388;2023-06-10T16:22:02;19.50;99.90
19330;DHT22;9799;48.214;16.388;2023-06-10T16:25:23;19.60;99.90
19330;DHT22;9799;48.214;16.388;2023-06-10T16:28:45;19.60;99.90
19330;DHT22;9799;48.214;16.388;2023-06-10T16:32:07;19.60;99.90
19330;DHT22;9799;48.214;16.388;2023-06-10T16:35:29;19.60;99.90
19330;DHT22;9799;48.214;16.388;2023-06-10T16:38:50;19.50;99.90
19330;DHT22;9799;48.214;16.388;2023-06-10T16:42:14;19.50;99.90
19330;DHT22;9799;48.214;16.388;2023-06-10T16:45:35;19.60;99.90
19330;DHT22;9799;48.214;16.388;2023-06-10T16:48:56;19.60;99.90
19330;DHT22;9799;48.214;16.388;2023-06-10T16:52:18;19.60;99.90
19330;DHT22;9799;48.214;16.388;2023-06-10T16:55:40;19.70;99.90
19330;DHT22;9799;48.214;16.388;2023-06-10T16:59:01;19.70;99.90
19330;DHT22;9799;48.214;16.388;2023-06-10T17:02:22;19.70;99.90
19330;DHT22;9799;48.214;16.388;2023-06-10T17:05:45;19.70;99.90
19330;DHT22;9799;48.214;16.388;2023-06-10T17:09:08;19.70;99.90
19330;DHT22;9799;48.214;16.388;2023-06-10T17:12:29;19.60;99.90
19330;DHT22;9799;48.214;16.388;2023-06-10T17:15:50;19.60;99.90
19330;DHT22;9799;48.214;16.388;2023-06-10T17:19:12;19.70;99.90
19330;DHT22;9799;48.214;16.388;2023-06-10T17:22:33;19.70;99.90
19330;DHT22;9799;48.214;16.388;2023-06-10T17:25:55;19.80;99.90
19330;DHT22;9799;48.214;16.388;2023-06-10T17:29:16;19.80;99.90
19330;DHT22;9799;48.214;16.388;2023-06-10T17:32:39;19.80;99.90
19330;DHT22;9799;48.214;16.388;2023-06-10T17:36:00;19.80;99.90
19330;DHT22;9799;48.214;16.388;2023-06-10T17:39:22;19.80;99.90
19330;DHT22;9799;48.214;16.388;2023-06-10T17:42:44;19.70;99.90
19330;DHT22;9799;48.214;16.388;2023-06-10T17:46:05;19.80;99.90
19330;DHT22;9799;48.214;16.388;2023-06-10T17:49:26;19.70;99.90
19330;DHT22;9799;48.214;16.388;2023-06-10T17:52:48;19.80;99.90
19330;DHT22;9799;48.214;16.388;2023-06-10T17:56:09;19.70;99.90
19330;DHT22;9799;48.214;16.388;2023-06-10T17:59:31;19.80;99.90
19330;DHT22;9799;48.214;16.388;2023-06-10T18:02:52;19.80;99.90
19330;DHT22;9799;48.214;16.388;2023-06-10T18:06:14;19.80;99.90
19330;DHT22;9799;48.214;16.388;2023-06-10T18:09:35;19.80;99.90
19330;DHT22;9799;48.214;16.388;2023-06-10T18:12:56;19.90;99.90
19330;DHT22;9799;48.214;16.388;2023-06-10T18:16:19;19.80;99.90
19330;DHT22;9799;48.214;16.388;2023-06-10T18:19:40;19.80;99.90
19330;DHT22;9799;48.214;16.388;2023-06-10T18:23:01;19.90;99.90
19330;DHT22;9799;48.214;16.388;2023-06-10T18:26:22;19.90;99.90
19330;DHT22;9799;48.214;16.388;2023-06-10T18:29:44;19.90;99.90
19330;DHT22;9799;48.214;16.388;2023-06-10T18:33:07;19.90;99.90
19330;DHT22;9799;48.214;16.388;2023-06-10T18:36:28;19.90;99.90
19330;DHT22;9799;48.214;16.388;2023-06-10T18:39:49;19.90;99.90
19330;DHT22;9799;48.214;16.388;2023-06-10T18:43:11;19.90;99.90
19330;DHT22;9799;48.214;16.388;2023-06-10T18:46:32;19.90;99.90
19330;DHT22;9799;48.214;16.388;2023-06-10T18:49:54;19.90;99.90
19330;DHT22;9799;48.214;16.388;2023-06-10T18:53:16;19.90;99.90
19330;DHT22;9799;48.214;16.388;2023-06-10T18:56:37;19.90;99.90
19330;DHT22;9799;48.214;16.388;2023-06-10T18:59:58;19.80;99.90
19330;DHT22;9799;48.214;16.388;2023-06-10T19:03:19;19.90;99.90
19330;DHT22;9799;48.214;16.388;2023-06-10T19:06:42;19.80;99.90
19330;DHT22;9799;48.214;16.388;2023-06-10T19:10:03;19.90;99.90
19330;DHT22;9799;48.214;16.388;2023-06-10T19:13:25;19.90;99.90
19330;DHT22;9799;48.214;16.388;2023-06-10T19:16:47;19.80;99.90
19330;DHT22;9799;48.214;16.388;2023-06-10T19:20:09;19.80;99.90
19330;DHT22;9799;48.214;16.388;2023-06-10T19:23:33;19.80;99.90
19330;DHT22;9799;48.214;16.388;2023-06-10T19:26:55;19.80;99.90
19330;DHT22;9799;48.214;16.388;2023-06-10T19:30:17;19.70;99.90
19330;DHT22;9799;48.214;16.388;2023-06-10T19:33:38;19.70;99.90
19330;DHT22;9799;48.214;16.388;2023-06-10T19:36:59;19.70;99.90
19330;DHT22;9799;48.214;16.388;2023-06-10T19:40:21;19.70;99.90
19330;DHT22;9799;48.214;16.388;2023-06-10T19:43:42;19.70;99.90
19330;DHT22;9799;48.214;16.388;2023-06-10T19:47:05;19.60;99.90
19330;DHT22;9799;48.214;16.388;2023-06-10T19:50:26;19.60;99.90
19330;DHT22;9799;48.214;16.388;2023-06-10T19:53:48;19.60;99.90
19330;DHT22;9799;48.214;16.388;2023-06-10T19:57:10;19.60;99.90
19330;DHT22;9799;48.214;16.388;2023-06-10T20:00:31;19.50;99.90
19330;DHT22;9799;48.214;16.388;2023-06-10T20:03:52;19.60;99.90
19330;DHT22;9799;48.214;16.388;2023-06-10T20:07:14;19.60;99.90
19330;DHT22;9799;48.214;16.388;2023-06-10T20:10:35;19.60;99.90
19330;DHT22;9799;48.214;16.388;2023-06-10T20:13:58;19.60;99.90
19330;DHT22;9799;48.214;16.388;2023-06-10T20:17:19;19.60;99.90
19330;DHT22;9799;48.214;16.388;2023-06-10T20:20:40;19.60;99.90
19330;DHT22;9799;48.214;16.388;2023-06-10T20:24:02;19.50;99.90
19330;DHT22;9799;48.214;16.388;2023-06-10T20:27:24;19.60;99.90
19330;DHT22;9799;48.214;16.388;2023-06-10T20:30:46;19.60;99.90
19330;DHT22;9799;48.214;16.388;2023-06-10T20:34:08;19.60;99.90
19330;DHT22;9799;48.214;16.388;2023-06-10T20:37:29;19.60;99.90
19330;DHT22;9799;48.214;16.388;2023-06-10T20:40:50;19.60;99.90
19330;DHT22;9799;48.214;16.388;2023-06-10T20:44:11;19.60;99.90
19330;DHT22;9799;48.214;16.388;2023-06-10T20:47:35;19.60;99.90
19330;DHT22;9799;48.214;16.388;2023-06-10T20:50:56;19.60;99.90
19330;DHT22;9799;48.214;16.388;2023-06-10T20:54:17;19.60;99.90
19330;DHT22;9799;48.214;16.388;2023-06-10T20:57:38;19.70;99.90
19330;DHT22;9799;48.214;16.388;2023-06-10T21:01:00;19.70;99.90
19330;DHT22;9799;48.214;16.388;2023-06-10T21:04:22;19.70;99.90
19330;DHT22;9799;48.214;16.388;2023-06-10T21:07:44;19.60;99.90
19330;DHT22;9799;48.214;16.388;2023-06-10T21:11:06;19.60;99.90
19330;DHT22;9799;48.214;16.388;2023-06-10T21:14:27;19.60;99.90
19330;DHT22;9799;48.214;16.388;2023-06-10T21:17:48;19.50;99.90